createdAt,value
2023-04-17T00:01:00.423Z,6.86
2023-04-17T00:04:07.766Z,6.79
2023-04-17T00:07:14.575Z,6.72
2023-04-17T00:10:24.887Z,6.67
2023-04-17T00:13:30.175Z,6.63
2023-04-17T00:16:37.005Z,6.60
2023-04-17T00:19:42.208Z,6.55
2023-04-17T00:22:48.440Z,6.51
2023-04-17T00:25:56.146Z,6.46
2023-04-17T00:29:02.866Z,6.41
2023-04-17T00:32:07.892Z,6.36
2023-04-17T00:35:14.048Z,6.32
2023-04-17T00:38:20.439Z,6.30
2023-04-17T00:41:27.123Z,6.29
2023-04-17T00:44:33.248Z,6.29
2023-04-17T00:47:37.879Z,6.26
2023-04-17T00:50:43.955Z,6.25
2023-04-17T06:39:34.819Z,9.90
2023-04-17T06:42:42.813Z,10.04
2023-04-17T06:45:53.106Z,10.14
2023-04-17T06:49:03.708Z,10.22
2023-04-17T06:52:09.771Z,10.29
2023-04-17T06:55:15.026Z,10.35
2023-04-17T06:58:23.595Z,10.45
2023-04-17T07:01:29.736Z,10.53
2023-04-17T07:04:35.982Z,10.60
2023-04-17T07:07:43.302Z,10.67
2023-04-17T07:10:50.697Z,10.72
2023-04-17T07:13:55.843Z,10.76
2023-04-17T07:17:00.538Z,10.83
2023-04-17T07:20:05.895Z,10.89
2023-04-17T07:23:13.559Z,10.93
2023-04-17T07:26:17.694Z,10.99
2023-04-17T07:29:25.840Z,11.07
2023-04-17T07:32:35.142Z,11.18
2023-04-17T07:35:40.756Z,11.29
2023-04-17T07:38:48.991Z,11.40
2023-04-17T07:41:55.564Z,11.50
2023-04-17T07:45:03.810Z,11.59
2023-04-17T07:48:10.832Z,11.67
2023-04-17T07:51:16.387Z,11.76
2023-04-17T07:54:22.958Z,11.81
2023-04-17T07:57:29.272Z,11.85
2023-04-17T08:00:36.390Z,11.91
2023-04-17T08:03:43.613Z,11.97
2023-04-17T08:06:48.950Z,12.04
2023-04-17T08:09:56.768Z,12.14
2023-04-17T08:13:03.667Z,12.21
2023-04-17T08:16:09.233Z,12.30
2023-04-17T08:19:15.921Z,12.40
2023-04-17T08:22:22.184Z,12.49
2023-04-17T08:25:27.392Z,12.61
2023-04-17T08:28:35.530Z,12.71
2023-04-17T08:31:43.770Z,12.81
2023-04-17T08:34:50.849Z,12.89
2023-04-17T08:37:57.993Z,12.96
2023-04-17T08:41:05.949Z,13.04
2023-04-17T08:44:11.209Z,13.13
2023-04-17T08:47:17.788Z,13.22
2023-04-17T08:50:26.437Z,13.35
2023-04-17T08:53:32.679Z,13.46
2023-04-17T08:56:37.996Z,13.54
2023-04-17T08:59:44.442Z,13.65
2023-04-17T09:02:53.193Z,13.76
2023-04-17T09:06:00.016Z,13.83
2023-04-17T09:09:14.568Z,13.91
2023-04-17T09:12:26.409Z,14.04
2023-04-17T09:15:33.136Z,14.15
2023-04-17T09:18:37.275Z,14.25
2023-04-17T09:21:43.410Z,14.35
2023-04-17T09:24:49.801Z,14.47
2023-04-17T09:27:56.307Z,14.57
2023-04-17T09:31:01.946Z,14.68
2023-04-17T09:34:21.645Z,14.72
2023-04-17T09:37:28.813Z,14.83
2023-04-17T09:40:38.860Z,14.98
2023-04-17T09:43:59.457Z,15.13
2023-04-17T09:47:06.364Z,15.25
2023-04-17T09:50:12.596Z,15.32
2023-04-17T09:53:19.360Z,15.41
2023-04-17T09:56:24.456Z,15.45
2023-04-17T09:59:32.224Z,15.52
2023-04-17T10:02:39.308Z,15.62
2023-04-17T10:05:44.873Z,15.73
2023-04-17T10:08:50.507Z,15.83
2023-04-17T10:11:59.395Z,15.91
2023-04-17T10:15:05.621Z,16.01
2023-04-17T10:18:10.408Z,16.12
2023-04-17T10:21:38.177Z,16.22
2023-04-17T10:24:43.601Z,16.32
2023-04-17T10:27:53.666Z,16.40
2023-04-17T10:31:08.604Z,16.48
2023-04-17T10:34:14.370Z,16.58
2023-04-17T10:37:24.419Z,16.70
2023-04-17T10:40:33.937Z,16.83
2023-04-17T10:43:39.747Z,16.98
2023-04-17T10:46:46.029Z,17.12
2023-04-17T10:50:11.584Z,17.15
2023-04-17T10:53:19.296Z,17.11
2023-04-17T10:56:27.981Z,17.20
2023-04-17T10:59:35.924Z,17.36
2023-04-17T11:02:51.967Z,17.53
2023-04-17T11:06:01.550Z,17.72
2023-04-17T11:09:06.574Z,17.87
2023-04-17T11:12:16.682Z,17.99
2023-04-17T11:15:26.143Z,18.16
2023-04-17T11:18:35.879Z,18.34
2023-04-17T11:21:42.221Z,18.55
2023-04-17T11:24:48.761Z,18.83
2023-04-17T11:27:55.559Z,19.05
2023-04-17T11:31:02.335Z,19.27
2023-04-17T11:34:08.107Z,19.37
2023-04-17T11:37:14.536Z,19.44
2023-04-17T11:40:22.208Z,19.60
2023-04-17T11:43:28.049Z,19.77
2023-04-17T11:46:35.595Z,19.83
2023-04-17T11:49:45.574Z,19.87
2023-04-17T11:52:46.660Z,19.74
2023-04-17T11:55:33.637Z,19.68
2023-04-17T11:58:27.231Z,19.66
2023-04-17T12:01:20.300Z,19.70
2023-04-17T12:04:33.515Z,19.80
2023-04-17T12:07:39.171Z,19.98
2023-04-17T12:10:58.218Z,20.12
2023-04-17T12:14:03.860Z,20.15
2023-04-17T12:17:10.194Z,20.20
2023-04-17T12:20:17.005Z,20.32
2023-04-17T12:23:24.053Z,20.38
2023-04-17T12:26:31.906Z,20.27
2023-04-17T12:32:45.795Z,20.16
2023-04-17T12:35:54.050Z,19.99
2023-04-17T12:39:01.121Z,19.81
2023-04-17T12:42:07.091Z,19.71
2023-04-17T12:45:15.612Z,19.63
2023-04-17T12:48:24.681Z,19.56
2023-04-17T12:51:31.004Z,19.53
2023-04-17T12:54:36.955Z,19.46
2023-04-17T12:57:44.545Z,19.42
2023-04-17T13:00:52.449Z,19.44
2023-04-17T13:03:58.854Z,19.47
2023-04-17T13:07:06.179Z,19.53
2023-04-17T13:10:12.466Z,19.53
2023-04-17T13:13:18.145Z,19.51
2023-04-17T13:16:24.848Z,19.56
2023-04-17T13:19:29.856Z,19.64
2023-04-17T13:22:34.801Z,19.72
2023-04-17T13:25:34.393Z,19.78
2023-04-17T13:28:40.752Z,19.69
2023-04-17T13:31:46.130Z,19.69
2023-04-17T13:34:52.718Z,19.78
2023-04-17T13:37:58.673Z,19.85
2023-04-17T13:41:04.343Z,19.88
2023-04-17T13:44:10.988Z,19.94
2023-04-17T13:47:16.415Z,20.00
2023-04-17T13:50:23.218Z,20.12
2023-04-17T13:53:28.798Z,20.22
2023-04-17T13:56:35.623Z,20.32
2023-04-17T13:59:43.164Z,20.33
2023-04-17T14:02:50.490Z,20.29
2023-04-17T14:05:59.114Z,20.21
2023-04-17T14:09:06.298Z,20.05
2023-04-17T14:12:12.924Z,19.93
2023-04-17T14:15:20.226Z,19.83
2023-04-17T14:18:30.333Z,19.69
2023-04-17T14:21:37.348Z,19.61
2023-04-17T14:24:43.582Z,19.59
2023-04-17T14:27:49.247Z,19.56
2023-04-17T14:30:55.758Z,19.57
2023-04-17T14:34:03.139Z,19.61
2023-04-17T14:37:09.478Z,19.63
2023-04-17T14:40:17.194Z,19.59
2023-04-17T14:43:23.286Z,19.48
2023-04-17T14:46:28.829Z,19.48
2023-04-17T14:49:35.072Z,19.55
2023-04-17T14:52:40.600Z,19.69
2023-04-17T14:55:46.742Z,19.80
2023-04-17T14:58:53.605Z,19.90
2023-04-17T15:02:01.273Z,19.94
2023-04-17T15:05:07.403Z,20.01
2023-04-17T15:08:14.100Z,20.02
2023-04-17T15:11:19.377Z,19.91
2023-04-17T15:14:28.498Z,19.74
2023-04-17T15:17:35.302Z,19.57
2023-04-17T15:20:40.884Z,19.37
2023-04-17T15:23:47.398Z,19.17
2023-04-17T15:26:54.623Z,18.98
2023-04-17T15:30:01.667Z,18.82
2023-04-17T15:33:09.227Z,18.68
2023-04-17T15:36:15.296Z,18.53
2023-04-17T15:39:22.283Z,18.29
2023-04-17T15:42:30.172Z,18.11
2023-04-17T15:45:36.410Z,17.95
2023-04-17T15:48:41.907Z,17.81
2023-04-17T15:51:47.739Z,17.69
2023-04-17T15:54:53.636Z,17.56
2023-04-17T15:57:58.929Z,17.37
2023-04-17T16:01:04.413Z,17.24
2023-04-17T16:04:10.982Z,17.09
2023-04-17T16:07:19.535Z,16.94
2023-04-17T16:10:26.243Z,16.76
2023-04-17T16:13:31.789Z,16.59
2023-04-17T16:16:37.538Z,16.39
2023-04-17T16:19:44.836Z,16.22
2023-04-17T16:22:50.581Z,16.04
2023-04-17T16:25:58.123Z,15.85
2023-04-17T16:29:05.840Z,15.68
2023-04-17T16:32:11.647Z,15.49
2023-04-17T16:35:18.716Z,15.34
2023-04-17T16:38:25.373Z,15.18
2023-04-17T16:41:32.136Z,15.05
2023-04-17T16:44:38.992Z,14.91
2023-04-17T16:47:45.213Z,14.78
2023-04-17T16:50:51.242Z,14.68
2023-04-17T16:53:59.729Z,14.57
2023-04-17T16:57:04.885Z,14.47
2023-04-17T17:00:12.233Z,14.39
2023-04-17T17:03:18.323Z,14.28
2023-04-17T17:06:24.525Z,14.18
2023-04-17T17:09:30.733Z,14.09
2023-04-17T17:12:37.475Z,14.00
2023-04-17T17:15:43.374Z,13.90
2023-04-17T17:18:51.108Z,13.81
2023-04-17T17:21:57.164Z,13.73
2023-04-17T17:25:04.748Z,13.65
2023-04-17T17:28:10.169Z,13.55
2023-04-17T17:31:21.727Z,13.46
2023-04-17T17:34:30.446Z,13.39
2023-04-17T17:37:36.975Z,13.30
2023-04-17T17:40:42.242Z,13.23
2023-04-17T17:43:49.380Z,13.15
2023-04-17T17:46:58.842Z,13.07
2023-04-17T17:50:06.479Z,13.01
2023-04-17T17:53:12.033Z,12.92
2023-04-17T17:56:17.616Z,12.86
2023-04-17T17:59:25.455Z,12.79
2023-04-17T18:02:30.923Z,12.73
2023-04-17T18:05:37.418Z,12.67
2023-04-17T18:08:44.336Z,12.59
2023-04-17T18:11:50.589Z,12.52
2023-04-17T18:14:58.396Z,12.45
2023-04-17T18:18:06.069Z,12.37
2023-04-17T18:21:11.779Z,12.28
2023-04-17T18:24:18.616Z,12.20
2023-04-17T18:27:24.617Z,12.14
2023-04-17T18:30:33.297Z,12.06
2023-04-17T18:33:41.379Z,12.01
2023-04-17T18:36:48.145Z,11.94
2023-04-17T18:39:53.796Z,11.89
2023-04-17T18:43:01.560Z,11.84
2023-04-17T18:46:10.260Z,11.79
2023-04-17T18:49:16.434Z,11.77
2023-04-17T18:52:22.235Z,11.72
2023-04-17T18:55:28.443Z,11.68
2023-04-17T18:58:34.844Z,11.65
2023-04-17T19:01:40.607Z,11.62
2023-04-17T19:04:45.682Z,11.61
2023-04-17T19:07:53.389Z,11.59
2023-04-17T19:10:59.712Z,11.56
2023-04-17T19:14:07.235Z,11.54
2023-04-17T19:17:13.164Z,11.53
2023-04-17T19:20:18.059Z,11.49
2023-04-17T19:23:23.550Z,11.48
2023-04-17T19:26:30.837Z,11.44
2023-04-17T19:29:37.659Z,11.41
2023-04-17T19:32:43.603Z,11.39
2023-04-17T19:35:50.838Z,11.36
2023-04-17T19:38:57.575Z,11.34
2023-04-17T19:42:04.389Z,11.32
2023-04-17T19:45:12.754Z,11.29
2023-04-17T19:48:19.329Z,11.27
2023-04-17T19:51:27.362Z,11.24
2023-04-17T19:54:33.932Z,11.21
2023-04-17T19:57:39.982Z,11.20
2023-04-17T20:00:46.743Z,11.18
2023-04-17T20:03:53.333Z,11.16
2023-04-17T20:07:01.162Z,11.13
2023-04-17T20:10:08.515Z,11.09
2023-04-17T20:13:14.930Z,11.05
2023-04-17T20:16:21.380Z,11.01
2023-04-17T20:19:27.366Z,10.99
2023-04-17T20:22:33.427Z,10.95
2023-04-17T20:25:39.250Z,10.92
2023-04-17T20:28:46.712Z,10.90
2023-04-17T20:31:53.166Z,10.89
2023-04-17T20:35:00.537Z,10.86
2023-04-17T20:38:06.557Z,10.85
2023-04-17T20:41:12.911Z,10.85
2023-04-17T20:44:18.756Z,10.84
2023-04-17T20:47:24.338Z,10.86
2023-04-17T20:50:28.724Z,10.87
2023-04-17T20:53:34.927Z,10.90
2023-04-17T20:56:40.104Z,10.92
2023-04-17T20:59:46.826Z,10.95
2023-04-17T21:02:54.736Z,10.96
2023-04-17T21:06:01.093Z,10.97
2023-04-17T21:09:07.186Z,10.97
2023-04-17T21:12:13.058Z,10.96
2023-04-17T21:15:21.227Z,10.96
2023-04-17T21:18:26.448Z,10.96
2023-04-17T21:21:31.932Z,10.97
2023-04-17T21:24:39.005Z,10.99
2023-04-17T21:27:45.956Z,11.01
2023-04-17T21:30:51.624Z,11.01
2023-04-17T21:33:58.090Z,11.00
2023-04-17T21:37:03.727Z,10.98
2023-04-17T21:40:08.891Z,10.95
2023-04-17T21:43:16.071Z,10.91
2023-04-17T21:46:26.994Z,10.85
2023-04-17T21:49:35.267Z,10.79
2023-04-17T21:52:40.691Z,10.71
2023-04-17T21:55:50.515Z,10.65
2023-04-17T21:58:58.068Z,10.59
2023-04-17T22:02:04.056Z,10.54
2023-04-17T22:05:10.501Z,10.49
2023-04-17T22:08:16.238Z,10.45
2023-04-17T22:11:22.588Z,10.39
2023-04-17T22:14:29.502Z,10.34
2023-04-17T22:17:35.654Z,10.28
2023-04-17T22:20:42.410Z,10.22
2023-04-17T22:23:50.554Z,10.20
2023-04-17T22:26:57.574Z,10.17
2023-04-17T22:30:03.645Z,10.15
2023-04-17T22:33:10.513Z,10.12
2023-04-17T22:36:17.345Z,10.07
2023-04-17T22:39:24.664Z,10.02
2023-04-17T22:42:30.977Z,9.98
2023-04-17T22:45:38.440Z,9.95
2023-04-17T22:48:45.430Z,9.91
2023-04-17T22:51:52.381Z,9.86
2023-04-17T22:54:58.418Z,9.83
2023-04-17T22:58:04.434Z,9.81
2023-04-17T23:01:09.499Z,9.80
2023-04-17T23:04:17.628Z,9.79
2023-04-17T23:07:24.493Z,9.78
2023-04-17T23:10:30.876Z,9.80
2023-04-17T23:13:37.942Z,9.84
2023-04-17T23:16:44.156Z,9.89
2023-04-17T23:19:50.712Z,9.94
2023-04-17T23:22:57.120Z,9.98
2023-04-17T23:26:01.875Z,10.05
2023-04-17T23:29:08.303Z,10.09
2023-04-17T23:32:14.968Z,10.13
2023-04-17T23:35:21.964Z,10.18
2023-04-17T23:38:27.343Z,10.23
2023-04-17T23:41:33.486Z,10.26
2023-04-17T23:44:41.171Z,10.28
2023-04-17T23:47:49.491Z,10.30
2023-04-17T23:50:56.151Z,10.31
2023-04-17T23:54:03.231Z,10.33
2023-04-17T23:57:09.792Z,10.33
